createdAt,value
2019-02-28T00:03:06.992Z,1.63
2019-02-28T00:08:11.837Z,1.83
2019-02-28T00:13:21.465Z,1.80
2019-02-28T00:18:23.376Z,2.17
2019-02-28T00:23:28.185Z,2.17
2019-02-28T00:28:34.805Z,1.67
2019-02-28T00:33:40.228Z,1.90
2019-02-28T00:38:45.308Z,2.00
2019-02-28T00:43:51.379Z,2.00
2019-02-28T00:48:56.733Z,2.00
2019-02-28T00:54:01.847Z,2.00
2019-02-28T00:59:07.685Z,1.97
2019-02-28T01:04:15.762Z,1.87
2019-02-28T01:09:23.938Z,1.80
2019-02-28T01:14:28.636Z,1.90
2019-02-28T01:19:33.661Z,1.93
2019-02-28T01:24:38.433Z,1.50
2019-02-28T01:29:43.163Z,1.70
2019-02-28T01:34:49.096Z,2.00
2019-02-28T01:39:53.940Z,2.17
2019-02-28T01:45:00.839Z,2.20
2019-02-28T01:50:07.697Z,2.30
2019-02-28T01:55:13.243Z,2.40
2019-02-28T02:00:18.750Z,2.20
2019-02-28T02:05:23.468Z,2.20
2019-02-28T02:10:28.701Z,2.20
2019-02-28T02:15:33.433Z,2.53
2019-02-28T02:20:38.184Z,2.50
2019-02-28T02:25:42.961Z,2.10
2019-02-28T02:30:50.959Z,2.57
2019-02-28T02:35:54.189Z,2.80
2019-02-28T02:41:01.029Z,2.50
2019-02-28T02:46:06.260Z,2.47
2019-02-28T02:51:12.633Z,3.10
2019-02-28T02:56:18.896Z,3.13
2019-02-28T03:01:25.286Z,2.90
2019-02-28T03:06:31.624Z,2.87
2019-02-28T03:11:38.039Z,2.70
2019-02-28T03:16:42.743Z,2.80
2019-02-28T03:21:52.985Z,3.03
2019-02-28T03:26:58.294Z,2.73
2019-02-28T03:32:03.090Z,3.23
2019-02-28T03:37:10.608Z,2.97
2019-02-28T03:42:16.178Z,3.00
2019-02-28T03:47:23.940Z,2.53
2019-02-28T03:52:27.921Z,2.70
2019-02-28T03:57:33.913Z,2.57
2019-02-28T04:02:39.024Z,2.63
2019-02-28T04:07:44.091Z,2.67
2019-02-28T04:12:48.890Z,3.00
2019-02-28T04:17:53.628Z,2.50
2019-02-28T04:22:59.914Z,3.20
2019-02-28T04:28:05.174Z,3.07
2019-02-28T04:33:10.765Z,2.57
2019-02-28T04:38:20.453Z,2.80
2019-02-28T04:43:22.589Z,3.13
2019-02-28T04:48:27.311Z,3.40
2019-02-28T04:53:33.362Z,3.40
2019-02-28T04:58:40.241Z,3.60
2019-02-28T05:03:45.281Z,3.90
2019-02-28T05:08:51.197Z,3.40
2019-02-28T05:13:56.185Z,3.43
2019-02-28T05:19:01.591Z,3.40
2019-02-28T05:24:08.659Z,3.57
2019-02-28T05:29:15.239Z,3.47
2019-02-28T05:34:21.145Z,3.13
2019-02-28T05:39:28.296Z,3.60
2019-02-28T05:44:33.724Z,3.53
2019-02-28T05:49:40.689Z,3.30
2019-02-28T05:54:47.280Z,3.10
2019-02-28T05:59:51.582Z,3.20
2019-02-28T06:04:58.600Z,3.23
2019-02-28T06:10:06.053Z,3.90
2019-02-28T06:15:13.921Z,4.60
2019-02-28T06:20:18.692Z,3.50
2019-02-28T06:25:25.616Z,4.40
2019-02-28T06:30:30.197Z,3.77
2019-02-28T06:35:35.237Z,4.00
2019-02-28T06:40:40.470Z,4.00
2019-02-28T06:45:48.036Z,4.23
2019-02-28T06:50:53.020Z,4.10
2019-02-28T06:55:57.912Z,4.40
2019-02-28T07:01:03.113Z,4.30
2019-02-28T07:06:07.804Z,3.50
2019-02-28T07:11:12.675Z,3.77
2019-02-28T07:16:17.481Z,3.70
2019-02-28T07:21:22.271Z,4.23
2019-02-28T07:26:29.104Z,3.67
2019-02-28T07:31:38.426Z,3.40
2019-02-28T07:36:45.849Z,3.77
2019-02-28T07:41:52.392Z,3.50
2019-02-28T07:46:59.051Z,3.73
2019-02-28T07:52:06.933Z,3.90
2019-02-28T07:57:16.943Z,4.10
2019-02-28T08:02:18.759Z,4.23
2019-02-28T08:07:25.101Z,6.17
2019-02-28T08:12:30.787Z,6.10
2019-02-28T08:17:36.739Z,6.30
2019-02-28T08:22:41.621Z,6.30
2019-02-28T08:27:47.714Z,6.33
2019-02-28T08:32:52.753Z,7.37
2019-02-28T08:37:57.674Z,7.80
2019-02-28T08:43:02.397Z,7.70
2019-02-28T08:48:07.488Z,9.07
2019-02-28T08:53:15.210Z,8.83
2019-02-28T08:58:18.776Z,9.03
2019-02-28T09:03:26.884Z,9.77
2019-02-28T09:08:30.176Z,10.17
2019-02-28T09:13:35.285Z,8.90
2019-02-28T09:18:41.120Z,9.27
2019-02-28T09:23:46.193Z,8.93
2019-02-28T09:28:51.036Z,9.90
2019-02-28T09:33:58.877Z,10.57
2019-02-28T09:39:06.664Z,11.13
2019-02-28T09:44:15.897Z,10.07
2019-02-28T09:49:20.641Z,10.90
2019-02-28T09:54:25.592Z,9.60
2019-02-28T09:59:37.354Z,11.53
2019-02-28T10:04:41.364Z,11.33
2019-02-28T10:09:47.247Z,12.13
2019-02-28T10:14:52.696Z,10.67
2019-02-28T10:19:57.824Z,15.00
2019-02-28T10:25:03.624Z,11.43
2019-02-28T10:30:15.767Z,10.73
2019-02-28T10:35:22.837Z,12.07
2019-02-28T10:40:29.655Z,10.60
2019-02-28T10:45:38.339Z,11.83
2019-02-28T10:50:41.345Z,11.33
2019-02-28T10:55:46.225Z,11.00
2019-02-28T11:00:51.104Z,11.00
2019-02-28T11:05:56.237Z,11.60
2019-02-28T11:11:02.636Z,12.00
2019-02-28T11:16:07.737Z,10.90
2019-02-28T11:21:13.451Z,11.83
2019-02-28T11:26:18.565Z,10.87
2019-02-28T11:31:23.424Z,12.90
2019-02-28T11:36:30.462Z,11.90
2019-02-28T11:41:36.341Z,14.63
2019-02-28T11:46:43.084Z,13.87
2019-02-28T11:51:49.456Z,12.60
2019-02-28T11:56:54.484Z,11.87
2019-02-28T12:01:59.797Z,11.10
2019-02-28T12:07:04.936Z,11.07
2019-02-28T12:12:10.565Z,12.33
2019-02-28T12:17:16.915Z,12.20
2019-02-28T12:22:21.972Z,12.57
2019-02-28T12:27:27.434Z,14.07
2019-02-28T12:32:33.425Z,12.30
2019-02-28T12:37:41.113Z,10.80
2019-02-28T12:42:46.261Z,11.57
2019-02-28T12:47:51.304Z,12.47
2019-02-28T12:52:57.542Z,12.17
2019-02-28T12:58:02.911Z,12.87
2019-02-28T13:03:09.151Z,11.20
2019-02-28T13:08:14.410Z,10.30
2019-02-28T13:13:21.653Z,11.07
2019-02-28T13:18:29.481Z,11.67
2019-02-28T13:23:34.269Z,12.53
2019-02-28T13:28:39.409Z,11.57
2019-02-28T13:33:48.551Z,11.63
2019-02-28T13:38:54.848Z,12.67
2019-02-28T13:44:02.293Z,12.87
2019-02-28T13:49:08.506Z,10.80
2019-02-28T13:54:13.568Z,10.47
2019-02-28T13:59:20.028Z,10.50
2019-02-28T14:04:27.256Z,10.90
2019-02-28T14:09:32.572Z,11.40
2019-02-28T14:14:44.402Z,11.90
2019-02-28T14:19:52.683Z,10.87
2019-02-28T14:24:55.885Z,11.43
2019-02-28T14:30:00.835Z,10.70
2019-02-28T14:35:09.264Z,10.97
2019-02-28T14:40:17.553Z,9.47
2019-02-28T14:45:21.385Z,9.97
2019-02-28T14:50:27.728Z,11.33
2019-02-28T14:55:33.494Z,11.13
2019-02-28T15:00:42.380Z,10.63
2019-02-28T15:05:46.013Z,10.37
2019-02-28T15:10:53.222Z,11.10
2019-02-28T15:15:58.153Z,11.37
2019-02-28T15:21:04.504Z,10.70
2019-02-28T15:26:09.818Z,10.60
2019-02-28T15:31:16.672Z,10.57
2019-02-28T15:36:26.170Z,11.53
2019-02-28T15:41:33.864Z,11.87
2019-02-28T15:46:38.462Z,11.77
2019-02-28T15:51:43.253Z,11.07
2019-02-28T15:56:51.746Z,11.63
2019-02-28T16:01:56.108Z,9.77
2019-02-28T16:07:01.945Z,17.13
2019-02-28T16:12:07.222Z,21.53
2019-02-28T16:17:12.695Z,23.53
2019-02-28T16:22:18.202Z,20.50
2019-02-28T16:27:23.744Z,19.83
2019-02-28T16:32:30.009Z,17.67
2019-02-28T16:37:40.030Z,16.10
2019-02-28T16:42:46.447Z,12.70
2019-02-28T16:47:52.034Z,11.77
2019-02-28T16:52:57.744Z,10.47
2019-02-28T16:58:02.988Z,9.00
2019-02-28T17:03:09.974Z,8.13
2019-02-28T17:08:18.609Z,8.40
2019-02-28T17:13:41.234Z,7.97
2019-02-28T17:18:46.320Z,6.73
2019-02-28T17:23:51.303Z,6.63
2019-02-28T17:29:01.547Z,4.83
2019-02-28T17:34:07.803Z,4.77
2019-02-28T17:39:14.932Z,4.60
2019-02-28T17:44:47.896Z,4.50
2019-02-28T17:50:35.868Z,4.40
2019-02-28T17:56:23.946Z,4.73
2019-02-28T18:01:46.416Z,4.00
2019-02-28T18:07:30.656Z,3.90
2019-02-28T18:13:07.784Z,3.50
2019-02-28T18:19:06.821Z,2.87
2019-02-28T18:24:56.213Z,2.90
2019-02-28T18:30:46.360Z,2.67
2019-02-28T18:35:52.103Z,2.67
2019-02-28T18:40:59.706Z,2.50
2019-02-28T18:46:06.844Z,2.60
2019-02-28T18:51:11.904Z,2.40
2019-02-28T18:56:16.942Z,2.43
2019-02-28T19:01:21.624Z,2.53
2019-02-28T19:06:29.123Z,2.80
2019-02-28T19:11:34.864Z,2.57
2019-02-28T19:16:39.667Z,2.37
2019-02-28T19:21:45.479Z,2.77
2019-02-28T19:26:50.259Z,2.40
2019-02-28T19:31:55.468Z,2.63
2019-02-28T19:37:01.999Z,2.93
2019-02-28T19:42:07.956Z,3.00
2019-02-28T19:47:12.895Z,3.03
2019-02-28T19:52:18.785Z,3.27
2019-02-28T19:57:24.788Z,3.77
2019-02-28T20:02:31.223Z,4.33
2019-02-28T20:07:35.935Z,4.27
2019-02-28T20:12:41.010Z,4.40
2019-02-28T20:17:46.012Z,4.77
2019-02-28T20:22:51.331Z,4.90
2019-02-28T20:27:58.617Z,5.73
2019-02-28T20:33:03.441Z,6.27
2019-02-28T20:38:08.595Z,7.50
